Time,TemperatureF,DewpointF,PressureIn,WindDirection,WindDirectionDegrees,WindSpeedMPH,WindSpeedGustMPH,Humidity,HourlyPrecipIn,Conditions,Clouds,dailyrainin,SoftwareType,DateUTC
2013-05-06 00:01:00,43.3,37.8,30.28,West,270,0.0,0.0,81,0.00,,,0.00,WUHU216HW,2013-05-06 04:01:00,
2013-05-06 00:02:00,43.3,37.8,30.28,West,270,0.0,0.0,81,0.00,,,0.00,WUHU216HW,2013-05-06 04:02:00,
2013-05-06 00:07:00,43.5,38.3,30.28,West,270,0.0,0.0,82,0.00,,,0.00,WUHU216HW,2013-05-06 04:07:00,
2013-05-06 00:12:00,43.5,38.3,30.28,West,270,0.0,0.0,82,0.00,,,0.00,WUHU216HW,2013-05-06 04:12:00,
2013-05-06 00:17:00,43.5,38.6,30.28,West,270,0.0,0.0,83,0.00,,,0.00,WUHU216HW,2013-05-06 04:17:00,
2013-05-06 00:22:00,43.5,38.6,30.28,West,270,0.0,0.6,83,0.00,,,0.00,WUHU216HW,2013-05-06 04:22:00,
2013-05-06 00:28:00,43.7,39.1,30.28,West,270,0.0,0.6,84,0.00,,,0.00,WUHU216HW,2013-05-06 04:28:00,
2013-05-06 00:33:00,43.8,39.3,30.28,WNW,293,0.0,0.0,83,0.00,,,0.00,WUHU216HW,2013-05-06 04:33:00,
2013-05-06 00:38:00,43.5,38.6,30.28,WSW,248,0.0,0.0,83,0.00,,,0.00,WUHU216HW,2013-05-06 04:38:00,
2013-05-06 00:43:00,43.3,38.4,30.28,West,270,0.0,0.0,83,0.00,,,0.00,WUHU216HW,2013-05-06 04:43:00,
2013-05-06 00:48:00,43.3,38.8,30.27,West,270,0.0,0.0,84,0.00,,,0.00,WUHU216HW,2013-05-06 04:48:00,
2013-05-06 00:53:00,43.1,38.6,30.28,West,270,0.0,0.0,84,0.00,,,0.00,WUHU216HW,2013-05-06 04:53:00,
2013-05-06 00:58:00,43.1,38.6,30.27,West,270,0.0,0.0,84,0.00,,,0.00,WUHU216HW,2013-05-06 04:58:00,
2013-05-06 01:03:00,42.9,38.4,30.27,West,270,0.0,0.0,84,0.00,,,0.00,WUHU216HW,2013-05-06 05:03:00,
2013-05-06 01:08:00,42.9,38.4,30.28,West,270,0.0,0.0,84,0.00,,,0.00,WUHU216HW,2013-05-06 05:08:00,
2013-05-06 01:14:00,42.9,38.7,30.27,West,270,0.0,0.0,85,0.00,,,0.00,WUHU216HW,2013-05-06 05:14:00,
2013-05-06 01:19:00,42.9,38.7,30.28,West,270,0.0,0.0,85,0.00,,,0.00,WUHU216HW,2013-05-06 05:19:00,
2013-05-06 01:24:00,42.9,38.7,30.28,West,270,0.0,0.0,85,0.00,,,0.00,WUHU216HW,2013-05-06 05:24:00,
2013-05-06 01:29:00,42.9,38.7,30.27,West,270,0.0,0.0,85,0.00,,,0.00,WUHU216HW,2013-05-06 05:29:00,
2013-05-06 01:34:00,42.6,38.3,30.27,West,270,0.0,0.0,85,0.00,,,0.00,WUHU216HW,2013-05-06 05:34:00,
2013-05-06 01:39:00,42.6,38.3,30.27,West,270,0.0,0.0,85,0.00,,,0.00,WUHU216HW,2013-05-06 05:39:00,
2013-05-06 01:44:00,42.4,38.5,30.27,WNW,293,0.0,0.0,86,0.00,,,0.00,WUHU216HW,2013-05-06 05:44:00,
2013-05-06 01:49:00,42.0,38.1,30.27,NW,315,0.0,0.0,86,0.00,,,0.00,WUHU216HW,2013-05-06 05:49:00,
2013-05-06 01:54:00,42.0,38.1,30.27,West,270,0.0,0.0,86,0.00,,,0.00,WUHU216HW,2013-05-06 05:54:00,
2013-05-06 02:00:00,42.0,38.4,30.27,WNW,293,0.0,0.0,87,0.00,,,0.00,WUHU216HW,2013-05-06 06:00:00,
2013-05-06 02:05:00,41.9,38.2,30.27,WNW,293,0.0,0.0,87,0.00,,,0.00,WUHU216HW,2013-05-06 06:05:00,
2013-05-06 02:10:00,41.9,38.2,30.27,West,270,0.0,0.0,87,0.00,,,0.00,WUHU216HW,2013-05-06 06:10:00,
2013-05-06 02:15:00,41.7,38.4,30.27,West,270,0.0,0.0,88,0.00,,,0.00,WUHU216HW,2013-05-06 06:15:00,
2013-05-06 02:20:00,41.7,38.4,30.26,WNW,293,0.0,0.0,88,0.00,,,0.00,WUHU216HW,2013-05-06 06:20:00,
2013-05-06 02:25:00,41.9,38.5,30.26,WNW,293,0.0,0.0,88,0.00,,,0.00,WUHU216HW,2013-05-06 06:25:00,
2013-05-06 02:30:00,41.7,38.4,30.27,WNW,293,0.0,0.0,88,0.00,,,0.00,WUHU216HW,2013-05-06 06:30:00,
2013-05-06 02:35:00,41.7,38.4,30.27,West,270,0.0,0.0,88,0.00,,,0.00,WUHU216HW,2013-05-06 06:35:00,
2013-05-06 02:40:00,41.7,38.4,30.26,West,270,0.0,0.0,88,0.00,,,0.00,WUHU216HW,2013-05-06 06:40:00,
2013-05-06 02:46:00,41.5,38.5,30.26,West,270,0.0,0.0,89,0.00,,,0.00,WUHU216HW,2013-05-06 06:46:00,
2013-05-06 02:51:00,41.5,38.5,30.26,West,270,0.0,0.0,89,0.00,,,0.00,WUHU216HW,2013-05-06 06:51:00,
2013-05-06 02:56:00,41.5,38.5,30.26,WNW,293,0.0,0.0,89,0.00,,,0.00,WUHU216HW,2013-05-06 06:56:00,
2013-05-06 03:01:00,41.5,38.5,30.26,West,270,0.0,0.0,89,0.00,,,0.00,WUHU216HW,2013-05-06 07:01:00,
2013-05-06 03:06:00,41.7,38.7,30.26,West,270,0.0,0.0,89,0.00,,,0.00,WUHU216HW,2013-05-06 07:06:00,
2013-05-06 03:11:00,41.7,38.7,30.26,WNW,293,0.0,0.0,89,0.00,,,0.00,WUHU216HW,2013-05-06 07:11:00,
2013-05-06 03:16:00,41.7,38.7,30.26,West,270,0.0,0.0,89,0.00,,,0.00,WUHU216HW,2013-05-06 07:16:00,
2013-05-06 03:21:00,41.5,38.5,30.26,WNW,293,0.0,0.0,89,0.00,,,0.00,WUHU216HW,2013-05-06 07:21:00,
2013-05-06 03:26:00,41.5,38.5,30.26,WNW,293,0.0,0.0,89,0.00,,,0.00,WUHU216HW,2013-05-06 07:26:00,
2013-05-06 03:32:00,41.7,38.7,30.26,West,270,0.0,0.0,89,0.00,,,0.00,WUHU216HW,2013-05-06 07:32:00,
2013-05-06 03:37:00,41.5,38.8,30.25,West,270,0.0,0.0,90,0.00,,,0.00,WUHU216HW,2013-05-06 07:37:00,
2013-05-06 03:42:00,41.5,38.8,30.25,WNW,293,0.0,0.0,90,0.00,,,0.00,WUHU216HW,2013-05-06 07:42:00,
2013-05-06 03:47:00,41.5,38.8,30.25,West,270,0.0,0.0,90,0.00,,,0.00,WUHU216HW,2013-05-06 07:47:00,
2013-05-06 03:52:00,41.7,39.0,30.26,West,270,0.0,0.0,90,0.00,,,0.00,WUHU216HW,2013-05-06 07:52:00,
2013-05-06 03:57:00,41.5,38.8,30.25,WNW,293,0.0,0.0,90,0.00,,,0.00,WUHU216HW,2013-05-06 07:57:00,
2013-05-06 04:02:00,41.5,38.8,30.25,West,270,0.0,0.0,90,0.00,,,0.00,WUHU216HW,2013-05-06 08:02:00,
2013-05-06 04:07:00,41.5,38.8,30.25,West,270,0.0,0.0,90,0.00,,,0.00,WUHU216HW,2013-05-06 08:07:00,
2013-05-06 04:12:00,41.5,38.8,30.26,West,270,2.9,2.9,90,0.00,,,0.00,WUHU216HW,2013-05-06 08:12:00,
2013-05-06 04:18:00,41.7,39.2,30.26,WNW,293,0.0,2.9,91,0.00,,,0.00,WUHU216HW,2013-05-06 08:18:00,
2013-05-06 04:23:00,41.5,39.1,30.25,West,270,0.0,0.0,91,0.00,,,0.00,WUHU216HW,2013-05-06 08:23:00,
2013-05-06 04:28:00,41.5,39.1,30.25,WNW,293,0.0,0.0,91,0.00,,,0.00,WUHU216HW,2013-05-06 08:28:00,
2013-05-06 04:33:00,41.3,38.9,30.25,West,270,0.0,0.0,91,0.00,,,0.00,WUHU216HW,2013-05-06 08:33:00,
2013-05-06 04:38:00,41.1,38.7,30.26,West,270,0.0,0.0,91,0.00,,,0.00,WUHU216HW,2013-05-06 08:38:00,
2013-05-06 04:43:00,41.1,38.7,30.26,WNW,293,0.0,0.0,91,0.00,,,0.00,WUHU216HW,2013-05-06 08:43:00,
2013-05-06 04:48:00,41.1,38.7,30.25,WNW,293,0.0,0.0,90,0.00,,,0.00,WUHU216HW,2013-05-06 08:48:00,
2013-05-06 04:53:00,40.8,38.1,30.25,West,270,0.0,0.0,90,0.00,,,0.00,WUHU216HW,2013-05-06 08:53:00,
2013-05-06 04:58:00,40.8,38.3,30.25,NW,315,0.0,0.0,91,0.00,,,0.00,WUHU216HW,2013-05-06 08:58:00,
2013-05-06 05:04:00,40.6,38.2,30.25,WSW,248,1.7,1.7,91,0.00,,,0.00,WUHU216HW,2013-05-06 09:04:00,
2013-05-06 05:09:00,40.6,38.2,30.25,West,270,0.0,1.7,91,0.00,,,0.00,WUHU216HW,2013-05-06 09:09:00,
2013-05-06 05:14:00,40.4,38.0,30.26,West,270,0.0,0.0,91,0.00,,,0.00,WUHU216HW,2013-05-06 09:14:00,
2013-05-06 05:19:00,40.4,38.0,30.26,West,270,0.0,0.0,91,0.00,,,0.00,WUHU216HW,2013-05-06 09:19:00,
2013-05-06 05:24:00,40.2,37.8,30.25,WNW,293,0.0,0.0,91,0.00,,,0.00,WUHU216HW,2013-05-06 09:24:00,
2013-05-06 05:29:00,40.2,37.8,30.25,NW,315,0.0,0.0,91,0.00,,,0.00,WUHU216HW,2013-05-06 09:29:00,
2013-05-06 05:34:00,40.1,37.6,30.26,West,270,0.0,0.0,91,0.00,,,0.00,WUHU216HW,2013-05-06 09:34:00,
2013-05-06 05:39:00,39.9,37.4,30.27,WNW,293,0.0,0.0,91,0.00,,,0.00,WUHU216HW,2013-05-06 09:39:00,
2013-05-06 05:44:00,40.1,37.6,30.27,West,270,0.0,0.0,91,0.00,,,0.00,WUHU216HW,2013-05-06 09:44:00,
2013-05-06 05:49:00,40.1,37.6,30.26,NNW,338,0.0,0.0,91,0.00,,,0.00,WUHU216HW,2013-05-06 09:49:00,
2013-05-06 05:55:00,40.1,37.6,30.26,North,0,0.0,0.0,91,0.00,,,0.00,WUHU216HW,2013-05-06 09:55:00,
2013-05-06 06:00:00,39.9,37.4,30.27,West,270,0.0,0.0,91,0.00,,,0.00,WUHU216HW,2013-05-06 10:00:00,
2013-05-06 06:05:00,40.4,38.7,30.27,NNE,23,0.0,1.3,91,0.00,,,0.00,WUHU216HW,2013-05-06 10:05:00,
2013-05-06 06:10:00,41.7,39.5,30.27,North,0,2.0,2.0,92,0.00,,,0.00,WUHU216HW,2013-05-06 10:10:00,
2013-05-06 06:15:00,41.9,39.7,30.27,NE,45,6.4,6.4,92,0.00,,,0.00,WUHU216HW,2013-05-06 10:15:00,
2013-05-06 06:20:00,44.2,42.0,30.27,NE,45,6.9,8.0,92,0.00,,,0.00,WUHU216HW,2013-05-06 10:20:00,
2013-05-06 06:25:00,45.8,43.7,30.27,NE,45,6.7,8.2,92,0.00,,,0.00,WUHU216HW,2013-05-06 10:25:00,
2013-05-06 06:30:00,47.1,44.6,30.28,NNE,23,8.0,8.2,91,0.00,,,0.00,WUHU216HW,2013-05-06 10:30:00,
2013-05-06 06:35:00,48.3,44.3,30.28,NNE,23,7.8,8.2,86,0.00,,,0.00,WUHU216HW,2013-05-06 10:35:00,
2013-05-06 06:40:00,48.9,43.9,30.28,NNE,23,8.2,8.9,83,0.00,,,0.00,WUHU216HW,2013-05-06 10:40:00,
2013-05-06 06:45:00,49.6,44.0,30.28,NNE,23,9.1,9.1,81,0.00,,,0.00,WUHU216HW,2013-05-06 10:45:00,
2013-05-06 06:51:00,49.8,43.5,30.28,NNE,23,9.1,9.1,79,0.00,,,0.00,WUHU216HW,2013-05-06 10:51:00,
2013-05-06 06:56:00,49.8,43.1,30.28,NNE,23,8.9,9.8,78,0.00,,,0.00,WUHU216HW,2013-05-06 10:56:00,
2013-05-06 07:01:00,50.1,43.5,30.28,NNE,23,9.6,9.8,78,0.00,,,0.00,WUHU216HW,2013-05-06 11:01:00,
2013-05-06 07:06:00,50.1,43.2,30.28,NE,45,8.9,9.6,77,0.00,,,0.00,WUHU216HW,2013-05-06 11:06:00,
2013-05-06 07:11:00,50.3,43.3,30.28,NNE,23,7.8,9.6,77,0.00,,,0.00,WUHU216HW,2013-05-06 11:11:00,
2013-05-06 07:16:00,50.3,43.3,30.28,NNE,23,9.1,9.1,77,0.00,,,0.00,WUHU216HW,2013-05-06 11:16:00,
2013-05-06 07:21:00,50.3,43.3,30.28,NNE,23,7.6,9.1,77,0.00,,,0.00,WUHU216HW,2013-05-06 11:21:00,
2013-05-06 07:26:00,50.3,42.7,30.28,NNE,23,9.6,9.6,75,0.00,,,0.00,WUHU216HW,2013-05-06 11:26:00,
2013-05-06 07:31:00,50.5,42.5,30.28,NNE,23,8.5,9.6,74,0.00,,,0.00,WUHU216HW,2013-05-06 11:31:00,
2013-05-06 07:36:00,50.7,42.7,30.28,NNE,23,8.9,9.1,74,0.00,,,0.00,WUHU216HW,2013-05-06 11:36:00,
2013-05-06 07:42:00,51.0,42.7,30.28,NNE,23,9.1,9.1,73,0.00,,,0.00,WUHU216HW,2013-05-06 11:42:00,
2013-05-06 07:47:00,51.4,43.4,30.28,NNE,23,9.1,9.1,74,0.00,,,0.00,WUHU216HW,2013-05-06 11:47:00,
2013-05-06 07:52:00,51.6,43.6,30.28,NNE,23,10.0,10.0,74,0.00,,,0.00,WUHU216HW,2013-05-06 11:52:00,
2013-05-06 07:57:00,52.1,44.4,30.28,NE,45,7.6,10.0,75,0.00,,,0.00,WUHU216HW,2013-05-06 11:57:00,
2013-05-06 08:02:00,52.3,43.9,30.28,NNE,23,6.2,9.8,73,0.00,,,0.00,WUHU216HW,2013-05-06 12:02:00,
2013-05-06 08:07:00,52.5,44.1,30.28,NNE,23,6.7,7.6,73,0.00,,,0.00,WUHU216HW,2013-05-06 12:07:00,
2013-05-06 08:12:00,52.7,44.2,30.28,NNE,23,5.8,7.1,73,0.00,,,0.00,WUHU216HW,2013-05-06 12:12:00,
2013-05-06 08:17:00,52.8,44.4,30.29,NE,45,5.3,7.1,73,0.00,,,0.00,WUHU216HW,2013-05-06 12:17:00,
2013-05-06 08:22:00,53.2,45.1,30.29,NE,45,4.4,5.8,74,0.00,,,0.00,WUHU216HW,2013-05-06 12:22:00,
2013-05-06 08:27:00,53.2,45.1,30.29,NE,45,4.2,5.8,74,0.00,,,0.00,WUHU216HW,2013-05-06 12:27:00,
2013-05-06 08:33:00,53.2,44.7,30.29,NNE,23,6.0,6.0,73,0.00,,,0.00,WUHU216HW,2013-05-06 12:33:00,
2013-05-06 08:38:00,52.8,44.4,30.29,NE,45,4.4,6.0,73,0.00,,,0.00,WUHU216HW,2013-05-06 12:38:00,
2013-05-06 08:43:00,52.8,44.1,30.29,NNE,23,4.4,6.0,72,0.00,,,0.00,WUHU216HW,2013-05-06 12:43:00,
2013-05-06 08:48:00,53.4,44.2,30.29,NE,45,4.0,5.3,71,0.00,,,0.00,WUHU216HW,2013-05-06 12:48:00,
2013-05-06 08:53:00,53.4,43.4,30.29,NE,45,1.3,4.0,69,0.00,,,0.00,WUHU216HW,2013-05-06 12:53:00,
2013-05-06 08:58:00,53.7,43.4,30.29,NE,45,0.0,4.0,68,0.00,,,0.00,WUHU216HW,2013-05-06 12:58:00,
2013-05-06 09:03:00,54.3,43.5,30.30,NE,45,4.2,4.2,67,0.00,,,0.00,WUHU216HW,2013-05-06 13:03:00,
2013-05-06 09:08:00,54.5,43.7,30.29,NE,45,2.2,4.2,67,0.00,,,0.00,WUHU216HW,2013-05-06 13:08:00,
2013-05-06 09:13:00,54.5,43.7,30.29,NE,45,4.6,4.6,67,0.00,,,0.00,WUHU216HW,2013-05-06 13:13:00,
2013-05-06 09:19:00,54.6,43.9,30.30,NNE,23,4.4,4.6,67,0.00,,,0.00,WUHU216HW,2013-05-06 13:19:00,
2013-05-06 09:24:00,54.6,43.5,30.30,NE,45,2.2,4.6,66,0.00,,,0.00,WUHU216HW,2013-05-06 13:24:00,
2013-05-06 09:29:00,54.6,43.9,30.29,NE,45,4.2,4.4,67,0.00,,,0.00,WUHU216HW,2013-05-06 13:29:00,
2013-05-06 09:34:00,55.0,44.2,30.29,NE,45,3.8,4.4,67,0.00,,,0.00,WUHU216HW,2013-05-06 13:34:00,
2013-05-06 09:39:00,55.4,43.7,30.29,NE,45,0.8,4.2,65,0.00,,,0.00,WUHU216HW,2013-05-06 13:39:00,
2013-05-06 09:44:00,55.2,43.1,30.29,NNE,23,4.4,4.4,64,0.00,,,0.00,WUHU216HW,2013-05-06 13:44:00,
2013-05-06 09:49:00,55.0,43.0,30.29,NNE,23,5.3,5.3,64,0.00,,,0.00,WUHU216HW,2013-05-06 13:49:00,
2013-05-06 09:54:00,55.0,43.4,30.29,NNE,23,3.8,5.3,65,0.00,,,0.00,WUHU216HW,2013-05-06 13:54:00,
2013-05-06 09:59:00,55.9,43.8,30.29,NE,45,3.8,5.1,64,0.00,,,0.00,WUHU216HW,2013-05-06 13:59:00,
2013-05-06 10:05:00,57.7,45.1,30.29,NE,45,2.9,4.6,63,0.00,,,0.00,WUHU216HW,2013-05-06 14:05:00,
2013-05-06 10:10:00,58.6,45.6,30.29,NE,45,2.2,2.9,62,0.00,,,0.00,WUHU216HW,2013-05-06 14:10:00,
2013-05-06 10:15:00,59.1,46.1,30.29,NE,45,2.9,3.8,62,0.00,,,0.00,WUHU216HW,2013-05-06 14:15:00,
2013-05-06 10:20:00,59.3,46.3,30.29,ENE,68,4.0,4.0,62,0.00,,,0.00,WUHU216HW,2013-05-06 14:20:00,
2013-05-06 10:25:00,59.5,46.0,30.29,ENE,68,3.5,4.2,61,0.00,,,0.00,WUHU216HW,2013-05-06 14:25:00,
2013-05-06 10:30:00,59.5,46.0,30.29,NE,45,5.1,5.1,61,0.00,,,0.00,WUHU216HW,2013-05-06 14:30:00,
2013-05-06 10:35:00,59.5,46.0,30.29,NE,45,4.0,5.3,61,0.00,,,0.00,WUHU216HW,2013-05-06 14:35:00,
2013-05-06 10:40:00,59.9,46.0,30.29,ENE,68,3.5,5.3,60,0.00,,,0.00,WUHU216HW,2013-05-06 14:40:00,
2013-05-06 10:45:00,60.4,46.0,30.29,NE,45,3.3,4.0,59,0.00,,,0.00,WUHU216HW,2013-05-06 14:45:00,
2013-05-06 10:50:00,60.8,45.9,30.29,East,90,2.4,4.0,58,0.00,,,0.00,WUHU216HW,2013-05-06 14:50:00,
2013-05-06 10:56:00,60.9,45.6,30.30,ENE,68,4.4,4.4,57,0.00,,,0.00,WUHU216HW,2013-05-06 14:56:00,
2013-05-06 11:01:00,61.3,45.9,30.29,NE,45,2.4,4.4,57,0.00,,,0.00,WUHU216HW,2013-05-06 15:01:00,
2013-05-06 11:06:00,61.8,45.9,30.30,NE,45,2.0,2.6,56,0.00,,,0.00,WUHU216HW,2013-05-06 15:06:00,
2013-05-06 11:11:00,61.1,44.8,30.29,NNE,23,4.2,4.4,55,0.00,,,0.00,WUHU216HW,2013-05-06 15:11:00,
2013-05-06 11:16:00,60.6,44.8,30.29,NNE,23,4.2,4.4,56,0.00,,,0.00,WUHU216HW,2013-05-06 15:16:00,
2013-05-06 11:21:00,61.1,45.3,30.29,NNE,23,4.4,4.4,56,0.00,,,0.00,WUHU216HW,2013-05-06 15:21:00,
2013-05-06 11:26:00,61.3,45.4,30.29,NE,45,2.4,4.4,56,0.00,,,0.00,WUHU216HW,2013-05-06 15:26:00,
2013-05-06 11:31:00,60.9,44.6,30.29,NE,45,5.3,5.3,55,0.00,,,0.00,WUHU216HW,2013-05-06 15:31:00,
2013-05-06 11:36:00,60.8,45.1,30.29,NNE,23,5.5,5.5,56,0.00,,,0.00,WUHU216HW,2013-05-06 15:36:00,
2013-05-06 11:42:00,60.8,45.4,30.29,NNE,23,5.8,5.8,57,0.00,,,0.00,WUHU216HW,2013-05-06 15:42:00,
2013-05-06 11:47:00,60.6,45.7,30.29,NNE,23,5.1,5.8,58,0.00,,,0.00,WUHU216HW,2013-05-06 15:47:00,
2013-05-06 11:52:00,61.8,46.9,30.29,NE,45,3.8,5.8,58,0.00,,,0.00,WUHU216HW,2013-05-06 15:52:00,
2013-05-06 11:57:00,62.6,46.6,30.28,NE,45,4.2,5.1,56,0.00,,,0.00,WUHU216HW,2013-05-06 15:57:00,
2013-05-06 12:02:00,63.1,47.1,30.29,NE,45,5.8,5.8,56,0.00,,,0.00,WUHU216HW,2013-05-06 16:02:00,
2013-05-06 12:07:00,64.0,47.9,30.28,NE,45,4.0,5.8,56,0.00,,,0.00,WUHU216HW,2013-05-06 16:07:00,
2013-05-06 12:12:00,65.4,48.3,30.29,ENE,68,5.5,5.5,54,0.00,,,0.00,WUHU216HW,2013-05-06 16:12:00,
2013-05-06 12:17:00,64.7,46.6,30.29,ENE,68,1.1,5.5,52,0.00,,,0.00,WUHU216HW,2013-05-06 16:17:00,
2013-05-06 12:22:00,64.0,46.2,30.28,ENE,68,3.5,5.5,53,0.00,,,0.00,WUHU216HW,2013-05-06 16:22:00,
2013-05-06 12:27:00,64.2,46.6,30.28,ENE,68,2.2,4.6,53,0.00,,,0.00,WUHU216HW,2013-05-06 16:27:00,
2013-05-06 12:32:00,64.9,46.8,30.29,ESE,113,2.2,4.9,52,0.00,,,0.00,WUHU216HW,2013-05-06 16:32:00,
2013-05-06 12:38:00,65.4,46.8,30.28,ESE,113,3.5,4.9,51,0.00,,,0.00,WUHU216HW,2013-05-06 16:38:00,
2013-05-06 12:43:00,66.0,47.4,30.29,ENE,68,3.3,3.5,51,0.00,,,0.00,WUHU216HW,2013-05-06 16:43:00,
2013-05-06 12:48:00,67.2,48.0,30.28,ESE,113,1.1,3.5,50,0.00,,,0.00,WUHU216HW,2013-05-06 16:48:00,
2013-05-06 12:53:00,67.2,47.4,30.28,ESE,113,2.6,4.0,49,0.00,,,0.00,WUHU216HW,2013-05-06 16:53:00,
2013-05-06 12:58:00,66.9,47.1,30.28,ENE,68,2.0,4.0,49,0.00,,,0.00,WUHU216HW,2013-05-06 16:58:00,
2013-05-06 13:03:00,68.1,47.7,30.28,NE,45,2.0,2.6,48,0.00,,,0.00,WUHU216HW,2013-05-06 17:03:00,
2013-05-06 13:08:00,68.3,47.2,30.28,NE,45,3.1,3.1,47,0.00,,,0.00,WUHU216HW,2013-05-06 17:08:00,
2013-05-06 13:13:00,67.8,47.3,30.27,NE,45,0.8,3.1,48,0.00,,,0.00,WUHU216HW,2013-05-06 17:13:00,
2013-05-06 13:18:00,68.7,47.0,30.28,NE,45,2.2,2.4,46,0.00,,,0.00,WUHU216HW,2013-05-06 17:18:00,
2013-05-06 13:24:00,69.0,47.3,30.28,ENE,68,2.0,2.2,46,0.00,,,0.00,WUHU216HW,2013-05-06 17:24:00,
2013-05-06 13:29:00,69.4,47.0,30.27,ENE,68,1.5,2.9,45,0.00,,,0.00,WUHU216HW,2013-05-06 17:29:00,
2013-05-06 13:34:00,69.0,47.3,30.28,ENE,68,3.1,3.1,46,0.00,,,0.00,WUHU216HW,2013-05-06 17:34:00,
2013-05-06 13:39:00,68.9,46.5,30.28,ENE,68,1.7,3.1,46,0.00,,,0.00,WUHU216HW,2013-05-06 17:39:00,
2013-05-06 13:44:00,69.2,46.3,30.28,East,90,1.3,2.6,44,0.00,,,0.00,WUHU216HW,2013-05-06 17:44:00,
2013-05-06 13:49:00,69.9,47.5,30.27,ENE,68,1.5,2.2,45,0.00,,,0.00,WUHU216HW,2013-05-06 17:49:00,
2013-05-06 13:54:00,70.8,47.1,30.27,ENE,68,1.7,2.0,43,0.00,,,0.00,WUHU216HW,2013-05-06 17:54:00,
2013-05-06 13:59:00,71.9,47.5,30.27,ENE,68,1.1,1.7,42,0.00,,,0.00,WUHU216HW,2013-05-06 17:59:00,
2013-05-06 14:05:00,73.2,48.0,30.27,NE,45,0.0,1.7,41,0.00,,,0.00,WUHU216HW,2013-05-06 18:05:00,
2013-05-06 14:10:00,73.9,48.1,30.27,ENE,68,0.0,1.5,40,0.00,,,0.00,WUHU216HW,2013-05-06 18:10:00,
2013-05-06 14:15:00,74.3,48.4,30.27,NE,45,0.0,1.5,40,0.00,,,0.00,WUHU216HW,2013-05-06 18:15:00,
2013-05-06 14:20:00,73.7,47.9,30.27,ENE,68,0.0,1.5,40,0.00,,,0.00,WUHU216HW,2013-05-06 18:20:00,
2013-05-06 14:25:00,73.7,47.9,30.27,NE,45,1.5,1.5,40,0.00,,,0.00,WUHU216HW,2013-05-06 18:25:00,
2013-05-06 14:30:00,73.5,48.4,30.27,ENE,68,2.0,2.0,41,0.00,,,0.00,WUHU216HW,2013-05-06 18:30:00,
2013-05-06 14:35:00,73.9,48.1,30.27,ENE,68,2.9,2.9,40,0.00,,,0.00,WUHU216HW,2013-05-06 18:35:00,
2013-05-06 14:40:00,74.1,48.3,30.27,ENE,68,2.2,2.9,40,0.00,,,0.00,WUHU216HW,2013-05-06 18:40:00,
2013-05-06 14:45:00,73.4,47.6,30.27,ENE,68,3.3,3.3,40,0.00,,,0.00,WUHU216HW,2013-05-06 18:45:00,
2013-05-06 14:50:00,70.7,46.4,30.27,ENE,68,3.1,4.6,42,0.00,,,0.00,WUHU216HW,2013-05-06 18:50:00,
2013-05-06 14:56:00,69.9,45.4,30.27,ENE,68,3.5,4.6,42,0.00,,,0.00,WUHU216HW,2013-05-06 18:56:00,
2013-05-06 15:01:00,69.4,45.2,30.27,East,90,3.1,3.5,42,0.00,,,0.00,WUHU216HW,2013-05-06 19:01:00,
2013-05-06 15:06:00,69.4,45.8,30.26,ENE,68,0.0,3.1,43,0.00,,,0.00,WUHU216HW,2013-05-06 19:06:00,
2013-05-06 15:11:00,70.1,46.2,30.26,East,90,1.7,3.1,42,0.00,,,0.00,WUHU216HW,2013-05-06 19:11:00,
2013-05-06 15:16:00,70.5,46.2,30.26,ESE,113,0.0,2.0,42,0.00,,,0.00,WUHU216HW,2013-05-06 19:16:00,
2013-05-06 15:21:00,70.5,45.6,30.26,SE,135,3.1,3.1,41,0.00,,,0.00,WUHU216HW,2013-05-06 19:21:00,
2013-05-06 15:26:00,70.8,45.9,30.26,SE,135,1.5,3.1,41,0.00,,,0.00,WUHU216HW,2013-05-06 19:26:00,
2013-05-06 15:31:00,71.7,46.2,30.26,SE,135,2.2,2.2,40,0.00,,,0.00,WUHU216HW,2013-05-06 19:31:00,
2013-05-06 15:36:00,72.1,45.7,30.26,ENE,68,0.0,2.2,39,0.00,,,0.00,WUHU216HW,2013-05-06 19:36:00,
2013-05-06 15:42:00,72.1,45.7,30.25,ESE,113,2.4,2.4,39,0.00,,,0.00,WUHU216HW,2013-05-06 19:42:00,
2013-05-06 15:47:00,72.1,46.5,30.25,ESE,113,2.2,2.4,40,0.00,,,0.00,WUHU216HW,2013-05-06 19:47:00,
2013-05-06 15:52:00,72.5,46.0,30.25,ESE,113,0.6,2.4,39,0.00,,,0.00,WUHU216HW,2013-05-06 19:52:00,
2013-05-06 15:57:00,73.0,46.5,30.25,East,90,1.5,1.5,39,0.00,,,0.00,WUHU216HW,2013-05-06 19:57:00,
2013-05-06 16:02:00,73.5,47.0,30.25,East,90,0.8,1.5,39,0.00,,,0.00,WUHU216HW,2013-05-06 20:02:00,
2013-05-06 16:07:00,73.0,45.8,30.24,SE,135,2.4,2.6,38,0.00,,,0.00,WUHU216HW,2013-05-06 20:07:00,
2013-05-06 16:12:00,72.3,45.9,30.24,ESE,113,0.0,2.6,39,0.00,,,0.00,WUHU216HW,2013-05-06 20:12:00,
2013-05-06 16:17:00,72.6,46.2,30.24,ESE,113,0.8,2.4,39,0.00,,,0.00,WUHU216HW,2013-05-06 20:17:00,
2013-05-06 16:22:00,73.0,46.5,30.23,ESE,113,1.3,1.5,39,0.00,,,0.00,WUHU216HW,2013-05-06 20:22:00,
2013-05-06 16:28:00,73.0,45.8,30.23,ESE,113,0.8,1.3,38,0.00,,,0.00,WUHU216HW,2013-05-06 20:28:00,
2013-05-06 16:33:00,72.6,46.2,30.23,ESE,113,1.3,1.3,39,0.00,,,0.00,WUHU216HW,2013-05-06 20:33:00,
2013-05-06 16:38:00,72.6,46.2,30.23,ENE,68,0.0,1.3,39,0.00,,,0.00,WUHU216HW,2013-05-06 20:38:00,
2013-05-06 16:43:00,73.2,46.7,30.23,ESE,113,0.0,1.3,39,0.00,,,0.00,WUHU216HW,2013-05-06 20:43:00,
2013-05-06 16:48:00,71.2,44.9,30.23,ENE,68,0.0,0.0,39,0.00,,,0.00,WUHU216HW,2013-05-06 20:48:00,
2013-05-06 16:53:00,68.5,43.8,30.23,NE,45,0.0,0.0,41,0.00,,,0.00,WUHU216HW,2013-05-06 20:53:00,
2013-05-06 16:58:00,66.7,43.4,30.23,NE,45,0.0,0.0,43,0.00,,,0.00,WUHU216HW,2013-05-06 20:58:00,
2013-05-06 17:03:00,64.9,42.9,30.23,NE,45,0.0,0.0,45,0.00,,,0.00,WUHU216HW,2013-05-06 21:03:00,
2013-05-06 17:08:00,63.6,42.9,30.22,NE,45,0.0,0.0,47,0.00,,,0.00,WUHU216HW,2013-05-06 21:08:00,
2013-05-06 17:13:00,64.2,44.0,30.22,NE,45,0.0,0.0,48,0.00,,,0.00,WUHU216HW,2013-05-06 21:13:00,
2013-05-06 17:19:00,64.9,44.6,30.22,NE,45,0.0,0.0,48,0.00,,,0.00,WUHU216HW,2013-05-06 21:19:00,
2013-05-06 17:24:00,64.2,44.5,30.22,NE,45,0.0,0.0,49,0.00,,,0.00,WUHU216HW,2013-05-06 21:24:00,
2013-05-06 17:29:00,64.0,44.9,30.22,NNE,23,0.0,0.0,50,0.00,,,0.00,WUHU216HW,2013-05-06 21:29:00,
2013-05-06 17:34:00,65.4,46.4,30.22,NE,45,0.0,0.0,50,0.00,,,0.00,WUHU216HW,2013-05-06 21:34:00,
2013-05-06 17:39:00,68.5,46.8,30.22,NE,45,0.0,0.0,46,0.00,,,0.00,WUHU216HW,2013-05-06 21:39:00,
2013-05-06 17:44:00,69.9,47.5,30.21,NNE,23,0.0,0.0,45,0.00,,,0.00,WUHU216HW,2013-05-06 21:44:00,
2013-05-06 17:49:00,70.5,47.4,30.21,NNE,23,0.0,0.0,44,0.00,,,0.00,WUHU216HW,2013-05-06 21:49:00,
2013-05-06 17:54:00,69.4,47.0,30.21,NNE,23,1.5,1.5,45,0.00,,,0.00,WUHU216HW,2013-05-06 21:54:00,
2013-05-06 17:59:00,67.6,46.6,30.21,NNE,23,1.1,1.5,47,0.00,,,0.00,WUHU216HW,2013-05-06 21:59:00,
2013-05-06 18:05:00,66.7,47.0,30.21,NE,45,1.5,1.7,49,0.00,,,0.00,WUHU216HW,2013-05-06 22:05:00,
2013-05-06 18:10:00,66.7,47.6,30.21,NNE,23,2.9,2.9,50,0.00,,,0.00,WUHU216HW,2013-05-06 22:10:00,
2013-05-06 18:15:00,66.3,47.7,30.21,NNE,23,2.9,2.9,51,0.00,,,0.00,WUHU216HW,2013-05-06 22:15:00,
2013-05-06 18:20:00,66.0,47.4,30.21,NNE,23,2.2,2.9,51,0.00,,,0.00,WUHU216HW,2013-05-06 22:20:00,
2013-05-06 18:25:00,66.0,47.9,30.21,NNE,23,1.5,2.6,52,0.00,,,0.00,WUHU216HW,2013-05-06 22:25:00,
2013-05-06 18:30:00,66.5,48.4,30.20,NNE,23,0.0,2.2,52,0.00,,,0.00,WUHU216HW,2013-05-06 22:30:00,
2013-05-06 18:35:00,66.9,49.2,30.20,NNE,23,1.5,2.0,53,0.00,,,0.00,WUHU216HW,2013-05-06 22:35:00,
2013-05-06 18:40:00,67.4,49.2,30.20,NNE,23,0.0,1.5,52,0.00,,,0.00,WUHU216HW,2013-05-06 22:40:00,
2013-05-06 18:45:00,66.5,48.9,30.20,NE,45,1.3,1.5,53,0.00,,,0.00,WUHU216HW,2013-05-06 22:45:00,
2013-05-06 18:50:00,65.1,48.4,30.20,NE,45,0.0,1.3,55,0.00,,,0.00,WUHU216HW,2013-05-06 22:50:00,
2013-05-06 18:55:00,64.2,48.5,30.20,NE,45,0.0,1.1,57,0.00,,,0.00,WUHU216HW,2013-05-06 22:55:00,
2013-05-06 19:00:00,62.7,48.7,30.20,North,0,0.0,1.1,60,0.00,,,0.00,WUHU216HW,2013-05-06 23:00:00,
2013-05-06 19:05:00,61.7,48.5,30.20,NNE,23,0.0,0.0,62,0.00,,,0.00,WUHU216HW,2013-05-06 23:05:00,
2013-05-06 19:11:00,60.0,48.2,30.21,NNE,23,0.0,0.0,65,0.00,,,0.00,WUHU216HW,2013-05-06 23:11:00,
2013-05-06 19:16:00,59.1,48.2,30.21,NNE,23,0.0,0.0,67,0.00,,,0.00,WUHU216HW,2013-05-06 23:16:00,
2013-05-06 19:21:00,58.8,48.2,30.21,NE,45,0.0,0.0,68,0.00,,,0.00,WUHU216HW,2013-05-06 23:21:00,
2013-05-06 19:26:00,57.9,48.2,30.21,NNE,23,0.0,0.0,70,0.00,,,0.00,WUHU216HW,2013-05-06 23:26:00,
2013-05-06 19:31:00,57.5,48.5,30.20,NNE,23,0.0,0.0,72,0.00,,,0.00,WUHU216HW,2013-05-06 23:31:00,
2013-05-06 19:36:00,57.0,48.3,30.20,NNE,23,0.0,0.0,73,0.00,,,0.00,WUHU216HW,2013-05-06 23:36:00,
2013-05-06 19:41:00,56.4,48.5,30.20,NNE,23,0.0,0.0,75,0.00,,,0.00,WUHU216HW,2013-05-06 23:41:00,
2013-05-06 19:46:00,56.1,48.2,30.20,NE,45,0.0,0.0,75,0.00,,,0.00,WUHU216HW,2013-05-06 23:46:00,
2013-05-06 19:51:00,55.7,47.9,30.21,NE,45,0.0,0.0,75,0.00,,,0.00,WUHU216HW,2013-05-06 23:51:00,
2013-05-06 19:57:00,55.0,47.2,30.20,ENE,68,0.0,0.0,75,0.00,,,0.00,WUHU216HW,2013-05-06 23:57:00,
2013-05-06 20:02:00,54.6,47.2,30.20,NE,45,0.0,0.0,76,0.00,,,0.00,WUHU216HW,2013-05-07 00:02:00,
2013-05-06 20:07:00,53.9,46.5,30.20,NE,45,0.0,0.0,76,0.00,,,0.00,WUHU216HW,2013-05-07 00:07:00,
2013-05-06 20:12:00,53.4,46.7,30.21,ENE,68,0.0,0.0,78,0.00,,,0.00,WUHU216HW,2013-05-07 00:12:00,
2013-05-06 20:17:00,52.8,46.5,30.20,ESE,113,0.0,0.0,79,0.00,,,0.00,WUHU216HW,2013-05-07 00:17:00,
2013-05-06 20:22:00,52.5,46.5,30.20,SE,135,0.0,0.0,80,0.00,,,0.00,WUHU216HW,2013-05-07 00:22:00,
2013-05-06 20:27:00,52.3,46.7,30.21,SE,135,0.0,0.0,81,0.00,,,0.00,WUHU216HW,2013-05-07 00:27:00,
2013-05-06 20:32:00,51.8,46.1,30.21,SE,135,0.0,0.0,81,0.00,,,0.00,WUHU216HW,2013-05-07 00:32:00,
2013-05-06 20:37:00,51.4,46.1,30.20,SE,135,0.0,0.0,82,0.00,,,0.00,WUHU216HW,2013-05-07 00:37:00,
2013-05-06 20:42:00,51.0,45.7,30.21,SE,135,0.0,0.0,82,0.00,,,0.00,WUHU216HW,2013-05-07 00:42:00,
2013-05-06 20:48:00,50.7,45.6,30.21,SE,135,0.0,0.0,83,0.00,,,0.00,WUHU216HW,2013-05-07 00:48:00,
2013-05-06 20:53:00,50.5,45.5,30.21,SE,135,0.0,0.0,83,0.00,,,0.00,WUHU216HW,2013-05-07 00:53:00,
2013-05-06 20:58:00,50.1,45.1,30.21,SE,135,0.0,0.0,83,0.00,,,0.00,WUHU216HW,2013-05-07 00:58:00,
2013-05-06 21:03:00,49.8,44.7,30.21,SE,135,0.0,0.0,83,0.00,,,0.00,WUHU216HW,2013-05-07 01:03:00,
2013-05-06 21:08:00,49.6,44.9,30.21,SE,135,0.0,0.0,84,0.00,,,0.00,WUHU216HW,2013-05-07 01:08:00,
2013-05-06 21:13:00,49.2,44.2,30.22,SE,135,0.0,0.0,83,0.00,,,0.00,WUHU216HW,2013-05-07 01:13:00,
2013-05-06 21:18:00,49.2,44.2,30.22,SE,135,0.0,0.0,83,0.00,,,0.00,WUHU216HW,2013-05-07 01:18:00,
2013-05-06 21:24:00,48.9,43.9,30.22,NE,45,0.0,0.0,83,0.00,,,0.00,WUHU216HW,2013-05-07 01:24:00,
2013-05-06 21:29:00,48.7,43.7,30.22,NNE,23,0.0,0.0,83,0.00,,,0.00,WUHU216HW,2013-05-07 01:29:00,
2013-05-06 21:34:00,48.7,43.1,30.22,NNE,23,0.0,0.0,81,0.00,,,0.00,WUHU216HW,2013-05-07 01:34:00,
2013-05-06 21:39:00,48.5,41.5,30.23,ESE,113,0.0,0.0,77,0.00,,,0.00,WUHU216HW,2013-05-07 01:39:00,
2013-05-06 21:44:00,48.5,40.9,30.23,SE,135,0.0,0.0,75,0.00,,,0.00,WUHU216HW,2013-05-07 01:44:00,
2013-05-06 21:49:00,48.3,40.3,30.23,ENE,68,0.0,0.0,74,0.00,,,0.00,WUHU216HW,2013-05-07 01:49:00,
2013-05-06 21:54:00,48.2,40.2,30.23,NE,45,0.0,0.0,74,0.00,,,0.00,WUHU216HW,2013-05-07 01:54:00,
2013-05-06 21:59:00,48.0,39.7,30.24,ENE,68,0.0,0.0,73,0.00,,,0.00,WUHU216HW,2013-05-07 01:59:00,
2013-05-06 22:04:00,47.8,39.5,30.24,NE,45,0.0,0.0,73,0.00,,,0.00,WUHU216HW,2013-05-07 02:04:00,
2013-05-06 22:09:00,47.8,39.5,30.24,NE,45,0.0,0.0,73,0.00,,,0.00,WUHU216HW,2013-05-07 02:09:00,
2013-05-06 22:14:00,48.0,39.3,30.23,NNE,23,0.0,0.0,72,0.00,,,0.00,WUHU216HW,2013-05-07 02:14:00,
2013-05-06 22:20:00,48.0,39.3,30.23,North,0,0.0,0.0,72,0.00,,,0.00,WUHU216HW,2013-05-07 02:20:00,
2013-05-06 22:25:00,47.3,39.0,30.24,NNE,23,0.0,0.0,73,0.00,,,0.00,WUHU216HW,2013-05-07 02:25:00,
2013-05-06 22:30:00,46.5,38.4,30.24,NNE,23,0.0,0.0,73,0.00,,,0.00,WUHU216HW,2013-05-07 02:30:00,
2013-05-06 22:35:00,46.0,38.2,30.24,NW,315,0.0,0.0,74,0.00,,,0.00,WUHU216HW,2013-05-07 02:35:00,
2013-05-06 22:40:00,45.6,38.2,30.24,NNE,23,0.0,0.0,75,0.00,,,0.00,WUHU216HW,2013-05-07 02:40:00,
2013-05-06 22:45:00,45.3,37.8,30.24,NW,315,0.0,0.0,75,0.00,,,0.00,WUHU216HW,2013-05-07 02:45:00,
2013-05-06 22:50:00,45.1,38.0,30.24,WNW,293,0.0,0.0,76,0.00,,,0.00,WUHU216HW,2013-05-07 02:50:00,
2013-05-06 22:55:00,44.9,38.1,30.24,NNW,338,0.0,0.0,77,0.00,,,0.00,WUHU216HW,2013-05-07 02:55:00,
2013-05-06 23:00:00,44.7,37.9,30.25,West,270,0.0,0.0,77,0.00,,,0.00,WUHU216HW,2013-05-07 03:00:00,
2013-05-06 23:05:00,44.4,37.9,30.24,West,270,0.0,0.0,78,0.00,,,0.00,WUHU216HW,2013-05-07 03:05:00,
2013-05-06 23:11:00,43.8,37.4,30.24,West,270,0.0,0.0,78,0.00,,,0.00,WUHU216HW,2013-05-07 03:11:00,
2013-05-06 23:16:00,43.7,37.9,30.24,NW,315,0.0,0.0,80,0.00,,,0.00,WUHU216HW,2013-05-07 03:16:00,
2013-05-06 23:21:00,43.5,37.4,30.24,West,270,0.0,0.0,79,0.00,,,0.00,WUHU216HW,2013-05-07 03:21:00,
2013-05-06 23:26:00,43.3,37.2,30.24,West,270,0.0,0.0,80,0.00,,,0.00,WUHU216HW,2013-05-07 03:26:00,
2013-05-06 23:31:00,43.1,37.4,30.24,WNW,293,0.0,0.0,80,0.00,,,0.00,WUHU216HW,2013-05-07 03:31:00,
2013-05-06 23:36:00,42.9,37.2,30.24,WSW,248,2.0,2.0,80,0.00,,,0.00,WUHU216HW,2013-05-07 03:36:00,
2013-05-06 23:41:00,42.8,36.8,30.24,West,270,0.0,2.0,80,0.00,,,0.00,WUHU216HW,2013-05-07 03:41:00,
2013-05-06 23:46:00,42.6,36.8,30.24,West,270,0.0,0.0,80,0.00,,,0.00,WUHU216HW,2013-05-07 03:46:00,
2013-05-06 23:51:00,42.6,36.8,30.24,WNW,293,0.0,0.0,80,0.00,,,0.00,WUHU216HW,2013-05-07 03:51:00,
2013-05-06 23:57:00,42.4,36.6,30.24,West,270,0.0,0.0,80,0.00,,,0.00,WUHU216HW,2013-05-07 03:57:00,